sensor_id;sensor_type;location;lat;lon;timestamp;pressure;altitude;pressure_sealevel;temperature;humidity
67803;BME280;54601;51.378;-1.342;2023-02-28T00:00:37;101904.48;;;17.45;25.77
67803;BME280;54601;51.378;-1.342;2023-02-28T00:03:02;101906.27;;;17.16;25.82
67803;BME280;54601;51.378;-1.342;2023-02-28T00:05:27;101905.71;;;17.34;25.80
67803;BME280;54601;51.378;-1.342;2023-02-28T00:07:52;101905.38;;;17.69;25.64
67803;BME280;54601;51.378;-1.342;2023-02-28T00:10:19;101902.91;;;17.55;25.70
67803;BME280;54601;51.378;-1.342;2023-02-28T00:12:43;101904.14;;;17.67;25.64
67803;BME280;54601;51.378;-1.342;2023-02-28T00:15:10;101906.45;;;17.61;25.68
67803;BME280;54601;51.378;-1.342;2023-02-28T00:17:33;101908.48;;;17.33;25.86
67803;BME280;54601;51.378;-1.342;2023-02-28T00:19:59;101910.48;;;17.67;25.55
67803;BME280;54601;51.378;-1.342;2023-02-28T00:22:24;101910.76;;;17.41;25.79
67803;BME280;54601;51.378;-1.342;2023-02-28T00:24:50;101911.32;;;17.32;25.86
67803;BME280;54601;51.378;-1.342;2023-02-28T00:27:16;101912.17;;;17.40;25.73
67803;BME280;54601;51.378;-1.342;2023-02-28T00:29:41;101914.32;;;17.32;25.79
67803;BME280;54601;51.378;-1.342;2023-02-28T00:32:07;101915.32;;;17.39;25.73
67803;BME280;54601;51.378;-1.342;2023-02-28T00:34:33;101920.97;;;17.17;25.87
67803;BME280;54601;51.378;-1.342;2023-02-28T00:36:57;101920.44;;;17.25;25.79
67803;BME280;54601;51.378;-1.342;2023-02-28T00:39:23;101926.30;;;17.30;25.74
67803;BME280;54601;51.378;-1.342;2023-02-28T00:41:48;101925.63;;;16.86;25.95
67803;BME280;54601;51.378;-1.342;2023-02-28T00:44:14;101927.07;;;17.16;25.87
67803;BME280;54601;51.378;-1.342;2023-02-28T00:46:39;101925.50;;;16.86;25.93
67803;BME280;54601;51.378;-1.342;2023-02-28T00:49:04;101925.78;;;17.07;25.92
67803;BME280;54601;51.378;-1.342;2023-02-28T00:51:30;101927.56;;;17.33;25.69
67803;BME280;54601;51.378;-1.342;2023-02-28T00:53:55;101925.97;;;17.17;25.82
67803;BME280;54601;51.378;-1.342;2023-02-28T00:56:20;101929.09;;;17.11;25.85
67803;BME280;54601;51.378;-1.342;2023-02-28T00:58:46;101931.14;;;16.99;25.97
67803;BME280;54601;51.378;-1.342;2023-02-28T01:01:11;101932.46;;;16.99;25.94
67803;BME280;54601;51.378;-1.342;2023-02-28T01:03:37;101933.22;;;16.93;25.82
67803;BME280;54601;51.378;-1.342;2023-02-28T01:06:02;101929.47;;;16.77;25.92
67803;BME280;54601;51.378;-1.342;2023-02-28T01:08:27;101932.33;;;16.98;25.99
67803;BME280;54601;51.378;-1.342;2023-02-28T01:10:53;101938.28;;;16.94;26.01
67803;BME280;54601;51.378;-1.342;2023-02-28T01:13:19;101937.97;;;16.99;25.97
67803;BME280;54601;51.378;-1.342;2023-02-28T01:15:46;101936.20;;;17.14;25.80
67803;BME280;54601;51.378;-1.342;2023-02-28T01:18:09;101936.84;;;17.06;25.86
67803;BME280;54601;51.378;-1.342;2023-02-28T01:20:36;101935.50;;;16.96;25.98
67803;BME280;54601;51.378;-1.342;2023-02-28T01:23:00;101933.93;;;17.05;25.90
67803;BME280;54601;51.378;-1.342;2023-02-28T01:25:25;101934.14;;;16.96;25.98
67803;BME280;54601;51.378;-1.342;2023-02-28T01:27:50;101938.00;;;17.09;25.85
67803;BME280;54601;51.378;-1.342;2023-02-28T01:30:16;101939.36;;;16.91;26.01
67803;BME280;54601;51.378;-1.342;2023-02-28T01:32:41;101939.70;;;16.77;26.15
67803;BME280;54601;51.378;-1.342;2023-02-28T01:35:07;101937.05;;;16.59;26.13
67803;BME280;54601;51.378;-1.342;2023-02-28T01:37:32;101936.37;;;16.90;25.83
67803;BME280;54601;51.378;-1.342;2023-02-28T01:39:57;101938.04;;;16.77;25.71
67803;BME280;54601;51.378;-1.342;2023-02-28T01:42:23;101938.02;;;17.16;25.79
67803;BME280;54601;51.378;-1.342;2023-02-28T01:44:55;101937.43;;;17.08;25.88
67803;BME280;54601;51.378;-1.342;2023-02-28T01:47:14;101937.12;;;16.96;25.76
67803;BME280;54601;51.378;-1.342;2023-02-28T01:49:39;101936.06;;;17.24;25.73
67803;BME280;54601;51.378;-1.342;2023-02-28T01:52:04;101933.54;;;17.24;25.76
67803;BME280;54601;51.378;-1.342;2023-02-28T01:54:31;101935.57;;;17.06;25.92
67803;BME280;54601;51.378;-1.342;2023-02-28T01:57:00;101928.80;;;16.63;25.84
67803;BME280;54601;51.378;-1.342;2023-02-28T01:59:25;101922.85;;;16.97;26.03
67803;BME280;54601;51.378;-1.342;2023-02-28T02:01:46;101921.71;;;16.98;25.96
67803;BME280;54601;51.378;-1.342;2023-02-28T02:04:11;101920.34;;;16.82;26.18
67803;BME280;54601;51.378;-1.342;2023-02-28T02:06:42;101917.60;;;16.92;26.11
67803;BME280;54601;51.378;-1.342;2023-02-28T02:09:02;101923.30;;;16.95;26.07
67803;BME280;54601;51.378;-1.342;2023-02-28T02:11:27;101925.01;;;17.02;26.02
67803;BME280;54601;51.378;-1.342;2023-02-28T02:14:05;101927.20;;;16.88;26.14
67803;BME280;54601;51.378;-1.342;2023-02-28T02:16:27;101928.19;;;16.84;26.20
67803;BME280;54601;51.378;-1.342;2023-02-28T02:18:46;101924.07;;;16.95;26.10
67803;BME280;54601;51.378;-1.342;2023-02-28T02:26:10;101923.42;;;16.89;26.19
67803;BME280;54601;51.378;-1.342;2023-02-28T02:28:39;101921.75;;;16.89;26.17
67803;BME280;54601;51.378;-1.342;2023-02-28T02:35:43;101917.00;;;17.10;26.00
67803;BME280;54601;51.378;-1.342;2023-02-28T02:38:09;101921.54;;;16.73;26.16
67803;BME280;54601;51.378;-1.342;2023-02-28T02:40:35;101919.76;;;17.05;26.08
67803;BME280;54601;51.378;-1.342;2023-02-28T02:43:01;101920.25;;;16.88;26.06
67803;BME280;54601;51.378;-1.342;2023-02-28T02:45:25;101919.14;;;16.97;26.21
67803;BME280;54601;51.378;-1.342;2023-02-28T02:47:48;101921.21;;;17.04;26.14
67803;BME280;54601;51.378;-1.342;2023-02-28T02:50:17;101921.70;;;16.77;26.42
67803;BME280;54601;51.378;-1.342;2023-02-28T02:52:42;101921.20;;;16.99;26.22
67803;BME280;54601;51.378;-1.342;2023-02-28T02:55:05;101925.99;;;17.03;26.19
67803;BME280;54601;51.378;-1.342;2023-02-28T02:57:32;101925.16;;;16.95;26.29
67803;BME280;54601;51.378;-1.342;2023-02-28T02:59:55;101925.24;;;16.74;26.46
67803;BME280;54601;51.378;-1.342;2023-02-28T03:02:21;101923.10;;;16.74;26.49
67803;BME280;54601;51.378;-1.342;2023-02-28T03:04:48;101925.26;;;16.99;26.27
67803;BME280;54601;51.378;-1.342;2023-02-28T03:07:10;101923.01;;;16.58;26.18
67803;BME280;54601;51.378;-1.342;2023-02-28T03:09:36;101921.04;;;17.03;26.25
67803;BME280;54601;51.378;-1.342;2023-02-28T03:12:02;101919.58;;;16.64;26.41
67803;BME280;54601;51.378;-1.342;2023-02-28T03:14:35;101917.16;;;16.90;26.35
67803;BME280;54601;51.378;-1.342;2023-02-28T03:16:59;101916.40;;;16.48;26.51
67803;BME280;54601;51.378;-1.342;2023-02-28T03:19:29;101916.87;;;17.18;26.11
67803;BME280;54601;51.378;-1.342;2023-02-28T03:21:46;101917.68;;;17.17;26.10
67803;BME280;54601;51.378;-1.342;2023-02-28T03:24:11;101917.44;;;17.26;26.01
67803;BME280;54601;51.378;-1.342;2023-02-28T03:26:36;101919.40;;;16.93;26.11
67803;BME280;54601;51.378;-1.342;2023-02-28T03:29:04;101918.47;;;16.66;26.12
67803;BME280;54601;51.378;-1.342;2023-02-28T03:31:28;101920.04;;;17.03;26.22
67803;BME280;54601;51.378;-1.342;2023-02-28T03:33:53;101920.39;;;17.05;26.19
67803;BME280;54601;51.378;-1.342;2023-02-28T03:36:17;101923.39;;;16.80;26.20
67803;BME280;54601;51.378;-1.342;2023-02-28T03:38:41;101919.90;;;16.84;26.17
67803;BME280;54601;51.378;-1.342;2023-02-28T03:41:08;101921.54;;;17.10;26.12
67803;BME280;54601;51.378;-1.342;2023-02-28T03:43:34;101917.54;;;17.29;25.94
67803;BME280;54601;51.378;-1.342;2023-02-28T03:45:56;101908.17;;;16.94;26.05
67803;BME280;54601;51.378;-1.342;2023-02-28T03:48:24;101906.24;;;16.97;26.05
67803;BME280;54601;51.378;-1.342;2023-02-28T03:50:50;101917.56;;;16.84;26.16
67803;BME280;54601;51.378;-1.342;2023-02-28T03:53:16;101915.67;;;17.37;25.84
67803;BME280;54601;51.378;-1.342;2023-02-28T03:55:40;101925.04;;;17.02;26.00
67803;BME280;54601;51.378;-1.342;2023-02-28T03:58:07;101927.88;;;16.74;25.99
67803;BME280;54601;51.378;-1.342;2023-02-28T04:00:31;101929.68;;;16.99;25.97
67803;BME280;54601;51.378;-1.342;2023-02-28T04:02:53;101931.85;;;16.86;26.33
67803;BME280;54601;51.378;-1.342;2023-02-28T04:05:18;101932.84;;;17.02;25.94
67803;BME280;54601;51.378;-1.342;2023-02-28T04:07:43;101932.71;;;17.05;26.07
67803;BME280;54601;51.378;-1.342;2023-02-28T04:10:10;101928.43;;;17.25;25.91
67803;BME280;54601;51.378;-1.342;2023-02-28T04:12:34;101931.35;;;16.96;25.94
67803;BME280;54601;51.378;-1.342;2023-02-28T04:14:59;101924.96;;;17.20;25.88
67803;BME280;54601;51.378;-1.342;2023-02-28T04:17:25;101917.99;;;17.27;25.82
67803;BME280;54601;51.378;-1.342;2023-02-28T04:19:50;101922.76;;;17.28;25.82
67803;BME280;54601;51.378;-1.342;2023-02-28T04:22:15;101921.80;;;17.11;25.77
67803;BME280;54601;51.378;-1.342;2023-02-28T04:24:41;101927.52;;;17.16;25.88
67803;BME280;54601;51.378;-1.342;2023-02-28T04:27:06;101927.19;;;16.62;25.94
67803;BME280;54601;51.378;-1.342;2023-02-28T04:29:32;101927.48;;;17.08;25.92
67803;BME280;54601;51.378;-1.342;2023-02-28T04:31:58;101929.84;;;17.12;25.92
67803;BME280;54601;51.378;-1.342;2023-02-28T04:34:22;101928.11;;;17.12;25.88
67803;BME280;54601;51.378;-1.342;2023-02-28T04:36:47;101921.53;;;17.19;25.80
67803;BME280;54601;51.378;-1.342;2023-02-28T04:39:13;101922.02;;;16.96;25.77
67803;BME280;54601;51.378;-1.342;2023-02-28T04:41:38;101917.33;;;17.31;25.69
67803;BME280;54601;51.378;-1.342;2023-02-28T04:44:04;101921.75;;;16.98;25.78
67803;BME280;54601;51.378;-1.342;2023-02-28T04:46:29;101933.20;;;17.24;25.74
67803;BME280;54601;51.378;-1.342;2023-02-28T04:48:54;101943.11;;;17.19;25.80
67803;BME280;54601;51.378;-1.342;2023-02-28T04:51:19;101945.08;;;16.97;25.77
67803;BME280;54601;51.378;-1.342;2023-02-28T04:53:45;101945.06;;;17.23;25.70
67803;BME280;54601;51.378;-1.342;2023-02-28T04:56:12;101946.64;;;17.21;25.69
67803;BME280;54601;51.378;-1.342;2023-02-28T04:58:35;101953.14;;;17.09;25.77
67803;BME280;54601;51.378;-1.342;2023-02-28T05:01:03;101949.79;;;16.86;25.79
67803;BME280;54601;51.378;-1.342;2023-02-28T05:03:26;101949.89;;;16.94;25.68
67803;BME280;54601;51.378;-1.342;2023-02-28T05:05:51;101948.30;;;17.20;25.62
67803;BME280;54601;51.378;-1.342;2023-02-28T05:08:17;101947.90;;;16.88;25.67
67803;BME280;54601;51.378;-1.342;2023-02-28T05:10:42;101954.53;;;17.05;25.56
67803;BME280;54601;51.378;-1.342;2023-02-28T05:13:10;101954.17;;;17.10;25.51
67803;BME280;54601;51.378;-1.342;2023-02-28T05:15:33;101953.42;;;17.40;25.35
67803;BME280;54601;51.378;-1.342;2023-02-28T05:17:58;101954.20;;;17.33;25.43
67803;BME280;54601;51.378;-1.342;2023-02-28T05:20:23;101960.61;;;17.20;25.34
67803;BME280;54601;51.378;-1.342;2023-02-28T05:22:49;101962.30;;;17.13;25.51
67803;BME280;54601;51.378;-1.342;2023-02-28T05:25:17;101970.26;;;16.59;25.57
67803;BME280;54601;51.378;-1.342;2023-02-28T05:27:39;101971.03;;;17.23;25.42
67803;BME280;54601;51.378;-1.342;2023-02-28T05:30:06;101969.33;;;17.29;25.33
67803;BME280;54601;51.378;-1.342;2023-02-28T05:32:30;101968.02;;;16.91;25.51
67803;BME280;54601;51.378;-1.342;2023-02-28T05:34:55;101975.76;;;17.02;25.32
67803;BME280;54601;51.378;-1.342;2023-02-28T05:37:21;101975.75;;;17.49;25.11
67803;BME280;54601;51.378;-1.342;2023-02-28T05:39:46;101976.23;;;17.11;25.43
67803;BME280;54601;51.378;-1.342;2023-02-28T05:42:11;101978.58;;;17.37;25.12
67803;BME280;54601;51.378;-1.342;2023-02-28T05:44:37;101982.50;;;16.67;25.33
67803;BME280;54601;51.378;-1.342;2023-02-28T05:47:02;101979.88;;;16.78;25.21
67803;BME280;54601;51.378;-1.342;2023-02-28T05:49:28;101975.13;;;17.52;24.99
67803;BME280;54601;51.378;-1.342;2023-02-28T05:51:53;101971.85;;;17.44;25.00
67803;BME280;54601;51.378;-1.342;2023-02-28T05:54:18;101968.24;;;17.21;24.97
67803;BME280;54601;51.378;-1.342;2023-02-28T05:56:43;101970.28;;;17.31;25.12
67803;BME280;54601;51.378;-1.342;2023-02-28T05:59:09;101969.96;;;17.20;25.10
67803;BME280;54601;51.378;-1.342;2023-02-28T06:01:36;101973.70;;;17.36;25.02
67803;BME280;54601;51.378;-1.342;2023-02-28T06:04:00;101979.66;;;17.02;25.28
67803;BME280;54601;51.378;-1.342;2023-02-28T06:06:25;101975.70;;;16.73;25.13
67803;BME280;54601;51.378;-1.342;2023-02-28T06:08:50;101972.94;;;17.03;25.01
67803;BME280;54601;51.378;-1.342;2023-02-28T06:11:16;101971.71;;;17.31;24.99
67803;BME280;54601;51.378;-1.342;2023-02-28T06:13:41;101975.84;;;17.37;24.88
67803;BME280;54601;51.378;-1.342;2023-02-28T06:16:08;101976.75;;;17.02;25.03
67803;BME280;54601;51.378;-1.342;2023-02-28T06:18:32;101978.47;;;17.06;25.00
67803;BME280;54601;51.378;-1.342;2023-02-28T06:20:57;101981.02;;;17.09;24.95
67803;BME280;54601;51.378;-1.342;2023-02-28T06:23:22;101984.26;;;17.26;24.99
67803;BME280;54601;51.378;-1.342;2023-02-28T06:25:48;101989.70;;;17.19;25.03
67803;BME280;54601;51.378;-1.342;2023-02-28T06:28:13;101987.56;;;17.32;24.86
67803;BME280;54601;51.378;-1.342;2023-02-28T06:30:39;101986.20;;;16.97;24.94
67803;BME280;54601;51.378;-1.342;2023-02-28T06:33:04;101984.62;;;17.07;25.13
67803;BME280;54601;51.378;-1.342;2023-02-28T06:35:29;101987.20;;;16.61;25.04
67803;BME280;54601;51.378;-1.342;2023-02-28T06:37:55;101983.79;;;17.01;25.09
67803;BME280;54601;51.378;-1.342;2023-02-28T06:40:20;101981.68;;;16.74;25.13
67803;BME280;54601;51.378;-1.342;2023-02-28T06:42:46;101978.63;;;17.07;25.05
67803;BME280;54601;51.378;-1.342;2023-02-28T06:45:11;101982.04;;;16.79;25.09
67803;BME280;54601;51.378;-1.342;2023-02-28T06:47:38;101983.05;;;17.00;25.11
67803;BME280;54601;51.378;-1.342;2023-02-28T06:50:02;101987.57;;;17.07;25.04
67803;BME280;54601;51.378;-1.342;2023-02-28T06:52:27;101990.19;;;17.06;25.02
67803;BME280;54601;51.378;-1.342;2023-02-28T06:54:52;101989.62;;;16.91;25.18
67803;BME280;54601;51.378;-1.342;2023-02-28T06:57:18;101989.96;;;17.03;25.06
67803;BME280;54601;51.378;-1.342;2023-02-28T06:59:43;101992.34;;;16.91;25.17
67803;BME280;54601;51.378;-1.342;2023-02-28T07:02:08;101991.10;;;16.88;25.16
67803;BME280;54601;51.378;-1.342;2023-02-28T07:04:34;101990.79;;;17.01;25.04
67803;BME280;54601;51.378;-1.342;2023-02-28T07:06:59;101990.58;;;16.90;25.17
67803;BME280;54601;51.378;-1.342;2023-02-28T07:09:24;101995.34;;;16.82;25.00
67803;BME280;54601;51.378;-1.342;2023-02-28T07:11:50;101998.19;;;16.82;25.17
67803;BME280;54601;51.378;-1.342;2023-02-28T07:14:15;101996.69;;;16.94;25.08
67803;BME280;54601;51.378;-1.342;2023-02-28T07:16:41;101993.73;;;17.03;24.97
67803;BME280;54601;51.378;-1.342;2023-02-28T07:19:06;101995.05;;;16.96;25.06
67803;BME280;54601;51.378;-1.342;2023-02-28T07:21:31;101999.19;;;16.93;25.12
67803;BME280;54601;51.378;-1.342;2023-02-28T07:23:57;102001.53;;;16.87;25.15
67803;BME280;54601;51.378;-1.342;2023-02-28T07:26:22;102002.49;;;16.64;25.34
67803;BME280;54601;51.378;-1.342;2023-02-28T07:28:48;102004.81;;;16.56;25.41
67803;BME280;54601;51.378;-1.342;2023-02-28T07:31:13;102007.73;;;16.51;25.46
67803;BME280;54601;51.378;-1.342;2023-02-28T07:33:38;102004.90;;;16.64;25.39
67803;BME280;54601;51.378;-1.342;2023-02-28T07:36:06;102003.28;;;16.40;25.37
67803;BME280;54601;51.378;-1.342;2023-02-28T07:38:29;101999.92;;;16.67;25.37
67803;BME280;54601;51.378;-1.342;2023-02-28T07:40:54;102000.11;;;16.60;25.45
67803;BME280;54601;51.378;-1.342;2023-02-28T07:43:20;102005.58;;;16.82;25.44
67803;BME280;54601;51.378;-1.342;2023-02-28T07:45:45;102007.08;;;16.61;25.44
67803;BME280;54601;51.378;-1.342;2023-02-28T07:48:11;102008.75;;;16.61;25.45
67803;BME280;54601;51.378;-1.342;2023-02-28T07:50:36;102009.32;;;16.83;25.29
67803;BME280;54601;51.378;-1.342;2023-02-28T07:53:01;102009.80;;;16.72;25.38
67803;BME280;54601;51.378;-1.342;2023-02-28T07:55:27;102012.78;;;16.75;25.40
67803;BME280;54601;51.378;-1.342;2023-02-28T07:57:52;102011.87;;;16.54;25.57
67803;BME280;54601;51.378;-1.342;2023-02-28T08:00:18;102012.94;;;16.55;25.60
67803;BME280;54601;51.378;-1.342;2023-02-28T08:02:43;102016.41;;;16.86;25.60
67803;BME280;54601;51.378;-1.342;2023-02-28T08:05:09;102016.17;;;16.56;25.72
67803;BME280;54601;51.378;-1.342;2023-02-28T08:07:34;102016.64;;;16.81;25.75
67803;BME280;54601;51.378;-1.342;2023-02-28T08:10:00;102016.02;;;16.47;25.87
67803;BME280;54601;51.378;-1.342;2023-02-28T08:12:25;102018.35;;;16.66;25.76
67803;BME280;54601;51.378;-1.342;2023-02-28T08:14:50;102021.84;;;16.19;25.97
67803;BME280;54601;51.378;-1.342;2023-02-28T08:17:15;102023.39;;;16.57;25.89
67803;BME280;54601;51.378;-1.342;2023-02-28T08:19:41;102023.67;;;16.48;26.03
67803;BME280;54601;51.378;-1.342;2023-02-28T08:22:06;102028.95;;;16.53;26.04
67803;BME280;54601;51.378;-1.342;2023-02-28T08:24:31;102025.36;;;16.59;25.99
67803;BME280;54601;51.378;-1.342;2023-02-28T08:26:57;102021.53;;;16.79;25.83
67803;BME280;54601;51.378;-1.342;2023-02-28T08:29:22;102021.17;;;16.61;26.05
67803;BME280;54601;51.378;-1.342;2023-02-28T08:31:48;102023.07;;;16.67;26.03
67803;BME280;54601;51.378;-1.342;2023-02-28T08:34:15;102022.57;;;16.63;26.11
67803;BME280;54601;51.378;-1.342;2023-02-28T08:36:39;102024.91;;;16.54;26.21
67803;BME280;54601;51.378;-1.342;2023-02-28T08:39:04;102021.48;;;16.66;26.19
67803;BME280;54601;51.378;-1.342;2023-02-28T08:41:30;102017.54;;;16.65;26.22
67803;BME280;54601;51.378;-1.342;2023-02-28T08:43:55;102016.96;;;16.49;26.39
67803;BME280;54601;51.378;-1.342;2023-02-28T08:46:20;102017.29;;;16.63;26.28
67803;BME280;54601;51.378;-1.342;2023-02-28T08:48:46;102017.87;;;16.61;26.35
67803;BME280;54601;51.378;-1.342;2023-02-28T08:51:12;102018.35;;;16.57;26.44
67803;BME280;54601;51.378;-1.342;2023-02-28T08:53:37;102020.78;;;16.76;26.28
67803;BME280;54601;51.378;-1.342;2023-02-28T08:56:03;102017.46;;;16.76;26.33
67803;BME280;54601;51.378;-1.342;2023-02-28T08:58:27;102019.86;;;16.84;26.29
67803;BME280;54601;51.378;-1.342;2023-02-28T09:00:52;102018.92;;;16.30;26.61
67803;BME280;54601;51.378;-1.342;2023-02-28T09:03:18;102022.11;;;16.68;26.51
67803;BME280;54601;51.378;-1.342;2023-02-28T09:08:08;102021.46;;;16.67;26.57
67803;BME280;54601;51.378;-1.342;2023-02-28T09:10:34;102018.95;;;16.51;26.74
67803;BME280;54601;51.378;-1.342;2023-02-28T09:12:59;102017.55;;;16.64;26.65
67803;BME280;54601;51.378;-1.342;2023-02-28T09:15:24;102016.14;;;16.71;26.61
67803;BME280;54601;51.378;-1.342;2023-02-28T09:17:50;102017.11;;;16.36;26.76
67803;BME280;54601;51.378;-1.342;2023-02-28T09:20:15;102014.15;;;16.71;26.68
67803;BME280;54601;51.378;-1.342;2023-02-28T09:22:40;102011.50;;;16.75;26.64
67803;BME280;54601;51.378;-1.342;2023-02-28T09:25:06;102008.96;;;17.02;26.62
67803;BME280;54601;51.378;-1.342;2023-02-28T09:39:38;102007.45;;;16.94;26.35
67803;BME280;54601;51.378;-1.342;2023-02-28T09:42:04;102006.61;;;17.04;26.29
67803;BME280;54601;51.378;-1.342;2023-02-28T09:44:31;102004.63;;;17.09;26.47
67803;BME280;54601;51.378;-1.342;2023-02-28T09:46:57;102006.42;;;16.52;26.56
67803;BME280;54601;51.378;-1.342;2023-02-28T09:49:22;102008.33;;;16.58;26.54
67803;BME280;54601;51.378;-1.342;2023-02-28T09:51:50;102011.04;;;17.00;26.61
67803;BME280;54601;51.378;-1.342;2023-02-28T09:54:14;102013.06;;;16.53;26.61
67803;BME280;54601;51.378;-1.342;2023-02-28T09:56:39;102012.17;;;16.97;26.64
67803;BME280;54601;51.378;-1.342;2023-02-28T09:59:02;102018.52;;;16.55;26.60
67803;BME280;54601;51.378;-1.342;2023-02-28T10:01:33;102016.33;;;16.42;26.74
67803;BME280;54601;51.378;-1.342;2023-02-28T10:03:56;102014.19;;;16.55;26.63
67803;BME280;54601;51.378;-1.342;2023-02-28T10:06:18;102015.18;;;16.85;26.62
67803;BME280;54601;51.378;-1.342;2023-02-28T10:08:47;102012.29;;;16.89;26.61
67803;BME280;54601;51.378;-1.342;2023-02-28T10:11:10;102010.43;;;17.02;26.70
67803;BME280;54601;51.378;-1.342;2023-02-28T10:13:35;102011.06;;;16.44;26.80
67803;BME280;54601;51.378;-1.342;2023-02-28T10:16:01;102008.55;;;17.04;26.73
67803;BME280;54601;51.378;-1.342;2023-02-28T10:18:26;102004.93;;;16.74;26.82
67803;BME280;54601;51.378;-1.342;2023-02-28T10:20:49;102001.44;;;16.98;26.81
67803;BME280;54601;51.378;-1.342;2023-02-28T10:23:19;101999.99;;;17.05;26.74
67803;BME280;54601;51.378;-1.342;2023-02-28T10:25:40;102004.88;;;16.93;26.86
67803;BME280;54601;51.378;-1.342;2023-02-28T10:28:11;102004.85;;;17.03;26.83
67803;BME280;54601;51.378;-1.342;2023-02-28T10:30:31;101999.65;;;16.71;26.91
67803;BME280;54601;51.378;-1.342;2023-02-28T10:32:55;101997.47;;;16.88;26.95
67803;BME280;54601;51.378;-1.342;2023-02-28T10:35:22;101995.47;;;16.72;26.91
67803;BME280;54601;51.378;-1.342;2023-02-28T10:37:48;101995.14;;;16.49;26.88
67803;BME280;54601;51.378;-1.342;2023-02-28T10:42:37;101993.18;;;16.84;26.83
67803;BME280;54601;51.378;-1.342;2023-02-28T10:45:10;101984.62;;;16.66;27.01
67803;BME280;54601;51.378;-1.342;2023-02-28T10:47:27;101988.68;;;16.65;27.03
67803;BME280;54601;51.378;-1.342;2023-02-28T10:49:53;101980.44;;;16.91;27.00
67803;BME280;54601;51.378;-1.342;2023-02-28T10:54:43;101984.79;;;16.96;26.93
67803;BME280;54601;51.378;-1.342;2023-02-28T10:57:16;101980.42;;;17.03;26.91
67803;BME280;54601;51.378;-1.342;2023-02-28T10:59:35;101975.09;;;16.85;27.05
67803;BME280;54601;51.378;-1.342;2023-02-28T11:02:00;101974.93;;;16.85;27.06
67803;BME280;54601;51.378;-1.342;2023-02-28T11:04:34;101976.69;;;16.89;27.04
67803;BME280;54601;51.378;-1.342;2023-02-28T11:06:56;101977.17;;;16.46;26.99
67803;BME280;54601;51.378;-1.342;2023-02-28T11:09:22;101974.98;;;17.07;26.89
67803;BME280;54601;51.378;-1.342;2023-02-28T11:11:43;101971.11;;;17.07;26.88
67803;BME280;54601;51.378;-1.342;2023-02-28T11:14:16;101974.51;;;16.88;27.09
67803;BME280;54601;51.378;-1.342;2023-02-28T11:16:33;101977.23;;;16.47;27.00
67803;BME280;54601;51.378;-1.342;2023-02-28T11:18:57;101978.38;;;16.90;27.08
67803;BME280;54601;51.378;-1.342;2023-02-28T11:21:26;101976.07;;;16.75;27.02
67803;BME280;54601;51.378;-1.342;2023-02-28T11:23:51;101967.36;;;16.56;26.94
67803;BME280;54601;51.378;-1.342;2023-02-28T11:26:13;101972.00;;;16.93;26.86
67803;BME280;54601;51.378;-1.342;2023-02-28T11:28:40;101964.93;;;17.03;26.96
67803;BME280;54601;51.378;-1.342;2023-02-28T11:33:31;101957.12;;;16.80;26.99
67803;BME280;54601;51.378;-1.342;2023-02-28T11:35:58;101951.77;;;16.72;27.07
67803;BME280;54601;51.378;-1.342;2023-02-28T11:38:20;101949.02;;;17.02;27.03
67803;BME280;54601;51.378;-1.342;2023-02-28T11:40:51;101950.28;;;17.01;27.06
67803;BME280;54601;51.378;-1.342;2023-02-28T11:43:22;101949.63;;;16.62;27.23
67803;BME280;54601;51.378;-1.342;2023-02-28T11:45:46;101949.65;;;17.04;27.07
67803;BME280;54601;51.378;-1.342;2023-02-28T11:48:08;101943.46;;;17.03;27.09
67803;BME280;54601;51.378;-1.342;2023-02-28T11:52:54;101945.83;;;16.90;27.21
67803;BME280;54601;51.378;-1.342;2023-02-28T11:55:20;101940.67;;;16.85;27.06
67803;BME280;54601;51.378;-1.342;2023-02-28T11:57:56;101938.49;;;17.03;27.10
67803;BME280;54601;51.378;-1.342;2023-02-28T12:00:18;101934.11;;;17.15;26.99
67803;BME280;54601;51.378;-1.342;2023-02-28T12:02:38;101934.69;;;17.02;27.10
67803;BME280;54601;51.378;-1.342;2023-02-28T12:07:31;101926.69;;;16.94;27.18
67803;BME280;54601;51.378;-1.342;2023-02-28T12:09:57;101925.02;;;16.60;27.01
67803;BME280;54601;51.378;-1.342;2023-02-28T12:12:23;101927.72;;;17.14;27.00
67803;BME280;54601;51.378;-1.342;2023-02-28T12:14:53;101924.86;;;17.04;27.08
67803;BME280;54601;51.378;-1.342;2023-02-28T12:17:16;101924.94;;;16.63;27.02
67803;BME280;54601;51.378;-1.342;2023-02-28T12:19:38;101922.77;;;17.04;27.07
67803;BME280;54601;51.378;-1.342;2023-02-28T12:26:48;101913.14;;;16.92;27.22
67803;BME280;54601;51.378;-1.342;2023-02-28T12:29:16;101906.66;;;16.47;27.17
67803;BME280;54601;51.378;-1.342;2023-02-28T12:31:41;101912.76;;;16.60;27.05
67803;BME280;54601;51.378;-1.342;2023-02-28T12:34:06;101908.70;;;17.19;26.98
67803;BME280;54601;51.378;-1.342;2023-02-28T12:36:28;101904.59;;;16.93;27.20
67803;BME280;54601;51.378;-1.342;2023-02-28T12:38:56;101901.06;;;16.89;27.23
67803;BME280;54601;51.378;-1.342;2023-02-28T12:41:24;101905.33;;;16.83;27.08
67803;BME280;54601;51.378;-1.342;2023-02-28T12:43:47;101898.35;;;16.93;27.20
67803;BME280;54601;51.378;-1.342;2023-02-28T12:46:12;101894.70;;;16.95;27.19
67803;BME280;54601;51.378;-1.342;2023-02-28T12:48:40;101895.55;;;16.63;27.27
67803;BME280;54601;51.378;-1.342;2023-02-28T12:51:00;101890.61;;;17.05;27.08
67803;BME280;54601;51.378;-1.342;2023-02-28T12:53:30;101886.50;;;17.08;27.05
67803;BME280;54601;51.378;-1.342;2023-02-28T12:55:57;101885.71;;;16.99;27.16
67803;BME280;54601;51.378;-1.342;2023-02-28T12:58:23;101875.79;;;17.04;27.11
67803;BME280;54601;51.378;-1.342;2023-02-28T13:01:02;101875.97;;;17.08;27.07
67803;BME280;54601;51.378;-1.342;2023-02-28T13:03:21;101870.21;;;16.84;27.06
67803;BME280;54601;51.378;-1.342;2023-02-28T13:05:41;101865.07;;;16.51;27.13
67803;BME280;54601;51.378;-1.342;2023-02-28T13:08:12;101857.17;;;16.91;27.00
67803;BME280;54601;51.378;-1.342;2023-02-28T13:10:24;101849.32;;;16.98;27.14